Time;durP1;ratioP1;P1;durP2;ratioP2;P2;SDS_P1;SDS_P2;PMS_P1;PMS_P2;Temp;Humidity;BMP_temperature;BMP_pressure;BME280_temperature;BME280_humidity;BME280_pressure;Samples;Min_cycle;Max_cycle;Signal;HPM_P1;HPM_P2
2022/12/19 00:00:16;;;;;;;22.85;13.25;;;;;;;1.75;59.62;96491.81;5052759;28;20033;-72
2022/12/19 00:02:41;;;;;;;30.88;15.05;;;;;;;1.78;59.48;96496.91;5036287;28;20029;-71
2022/12/19 00:05:07;;;;;;;26.92;14.13;;;;;;;1.85;58.94;96496.78;5052369;28;20048;-71
2022/12/19 00:07:32;;;;;;;22.75;13.35;;;;;;;1.93;58.90;96500.84;5052604;28;20029;-72
2022/12/19 00:09:58;;;;;;;25.10;13.60;;;;;;;1.78;59.00;96512.28;5050620;28;20037;-72
2022/12/19 00:12:23;;;;;;;24.98;13.77;;;;;;;1.81;59.01;96519.03;5033912;28;20558;-72
2022/12/19 00:14:49;;;;;;;27.77;13.05;;;;;;;1.73;58.68;96506.41;5033865;28;20480;-71
2022/12/19 00:17:14;;;;;;;24.00;12.75;;;;;;;1.77;58.89;96515.72;5032417;28;20388;-71
2022/12/19 00:19:40;;;;;;;22.27;12.63;;;;;;;1.63;59.23;96507.47;5033819;28;20029;-71
2022/12/19 00:22:05;;;;;;;23.75;13.13;;;;;;;1.76;59.62;96519.16;5032385;28;20484;-71
2022/12/19 00:24:31;;;;;;;24.90;13.07;;;;;;;1.68;59.88;96521.03;5031221;28;20435;-71
2022/12/19 00:26:56;;;;;;;24.17;13.23;;;;;;;1.73;60.05;96519.22;5033544;28;20126;-71
2022/12/19 00:29:21;;;;;;;23.92;13.73;;;;;;;1.75;59.58;96534.56;5041148;28;20041;-72
2022/12/19 00:31:47;;;;;;;24.13;12.68;;;;;;;1.63;59.72;96532.25;5053990;28;20617;-71
2022/12/19 00:34:12;;;;;;;21.98;12.55;;;;;;;1.58;60.35;96527.22;5052174;28;20099;-71
2022/12/19 00:36:38;;;;;;;22.27;12.70;;;;;;;1.50;60.93;96529.91;5052278;28;20040;-71
2022/12/19 00:39:04;;;;;;;25.60;12.68;;;;;;;1.49;60.18;96514.59;5035428;28;20493;-72
2022/12/19 00:41:31;;;;;;;25.00;13.27;;;;;;;1.69;60.05;96527.00;5052237;28;20053;-72
2022/12/19 00:43:58;;;;;;;23.80;12.05;;;;;;;1.58;60.49;96528.94;5050874;28;20273;-72
2022/12/19 00:46:23;;;;;;;20.75;12.00;;;;;;;1.68;60.16;96535.56;5051987;28;20200;-71
2022/12/19 00:48:49;;;;;;;20.02;12.00;;;;;;;1.70;60.72;96537.22;5053091;28;20029;-72
2022/12/19 00:51:18;;;;;;;22.08;12.45;;;;;;;1.76;60.47;96539.66;5035335;28;20025;-71
2022/12/19 00:53:44;;;;;;;26.17;13.63;;;;;;;1.40;60.47;96492.59;5051793;28;20033;-71
2022/12/19 00:56:18;;;;;;;22.00;11.75;;;;;;;1.56;60.84;96536.63;5035346;28;20044;-71
2022/12/19 00:58:43;;;;;;;23.58;12.38;;;;;;;1.55;61.21;96535.81;5035179;28;20088;-71
2022/12/19 01:01:13;;;;;;;21.48;11.93;;;;;;;1.68;60.77;96523.59;5051766;28;20463;-71
2022/12/19 01:03:39;;;;;;;20.55;11.43;;;;;;;1.60;60.35;96517.78;5051709;28;20103;-72
2022/12/19 01:06:04;;;;;;;22.85;12.07;;;;;;;1.56;60.84;96526.41;5053098;28;20028;-72
2022/12/19 01:08:30;;;;;;;20.48;11.80;;;;;;;1.46;60.89;96510.38;5034778;28;20502;-71
2022/12/19 01:10:55;;;;;;;21.17;12.50;;;;;;;1.69;60.32;96537.25;5024954;28;20037;-71
2022/12/19 01:13:21;;;;;;;21.83;12.48;;;;;;;1.67;61.04;96527.06;5032762;28;20037;-71
2022/12/19 01:15:47;;;;;;;22.95;13.70;;;;;;;1.72;59.61;96530.34;5031608;28;20450;-71
2022/12/19 01:18:12;;;;;;;25.77;13.60;;;;;;;1.86;60.38;96540.28;5031326;28;20033;-72
2022/12/19 01:20:39;;;;;;;24.10;12.82;;;;;;;1.93;60.03;96546.16;5031498;28;20056;-72
2022/12/19 01:23:05;;;;;;;23.80;12.40;;;;;;;1.71;59.96;96530.38;5031385;28;20095;-72
2022/12/19 01:25:32;;;;;;;23.58;12.18;;;;;;;1.82;60.32;96541.25;5014838;28;20450;-72
2022/12/19 01:27:58;;;;;;;22.00;12.63;;;;;;;1.84;60.06;96546.31;5031107;28;20530;-71
2022/12/19 01:30:24;;;;;;;20.65;12.13;;;;;;;1.72;60.92;96532.91;5031321;28;20025;-71
2022/12/19 01:32:49;;;;;;;24.30;13.02;;;;;;;1.93;60.05;96543.59;5031172;28;20037;-71
2022/12/19 01:35:15;;;;;;;25.10;13.35;;;;;;;1.70;59.39;96509.03;5016469;28;20028;-72
2022/12/19 01:37:40;;;;;;;24.33;13.30;;;;;;;1.95;59.62;96544.38;5046361;28;20039;-72
2022/12/19 01:40:06;;;;;;;25.05;13.93;;;;;;;1.90;60.03;96543.66;5048581;28;20029;-71
2022/12/19 01:42:35;;;;;;;25.88;13.60;;;;;;;1.84;60.36;96547.19;5048144;28;20033;-72
2022/12/19 01:45:07;;;;;;;24.42;12.63;;;;;;;1.78;60.69;96545.59;5047137;28;20029;-71
2022/12/19 01:47:34;;;;;;;;;;;;;;;1.81;60.70;96541.28;5048718;28;20032;-71
2022/12/19 01:50:01;;;;;;;22.77;11.70;;;;;;;1.69;60.66;96532.97;5047315;28;19921;-71
2022/12/19 01:52:26;;;;;;;23.08;11.82;;;;;;;1.70;61.31;96542.34;5045772;28;20025;-71
2022/12/19 01:54:51;;;;;;;19.17;11.75;;;;;;;1.75;60.98;96540.50;5030362;28;20083;-71
2022/12/19 01:57:17;;;;;;;23.33;13.45;;;;;;;1.75;60.55;96526.88;5048304;28;20068;-71
2022/12/19 01:59:47;;;;;;;25.80;13.18;;;;;;;1.64;60.67;96516.84;5044743;28;20025;-71
2022/12/19 02:02:23;;;;;;;22.85;12.32;;;;;;;1.72;60.72;96530.34;5027916;28;20045;-72
2022/12/19 02:04:49;;;;;;;23.20;12.48;;;;;;;1.82;60.71;96542.97;5029633;28;20499;-71
2022/12/19 02:07:15;;;;;;;26.30;12.20;;;;;;;1.81;60.80;96526.72;5047321;28;20037;-71
2022/12/19 02:09:40;;;;;;;23.35;13.00;;;;;;;1.78;60.92;96526.78;5028637;28;20025;-71
2022/12/19 02:12:06;;;;;;;24.95;12.27;;;;;;;1.84;60.24;96529.25;5043630;28;20033;-71
2022/12/19 02:14:32;;;;;;;23.70;12.57;;;;;;;1.70;60.79;96526.13;5045833;28;20111;-71
2022/12/19 02:17:39;;;;;;;24.85;12.88;;;;;;;1.47;61.05;96494.13;5042790;28;20522;-71
2022/12/19 02:20:26;;;;;;;24.27;13.65;;;;;;;1.73;61.22;96534.59;5060269;28;20040;-72
2022/12/19 02:23:10;;;;;;;25.20;13.63;;;;;;;1.74;61.03;96533.72;5040356;28;20036;-71
2022/12/19 02:25:35;;;;;;;21.23;11.55;;;;;;;1.78;60.79;96530.22;5047592;28;20029;-71
2022/12/19 02:28:19;;;;;;;23.85;12.63;;;;;;;1.56;60.93;96495.66;5047202;28;20499;-71
2022/12/19 02:30:53;;;;;;;27.73;13.68;;;;;;;1.74;60.92;96541.41;5047192;28;20064;-72
2022/12/19 02:33:26;;;;;;;25.02;12.93;;;;;;;1.69;61.06;96529.56;5044257;28;20033;-71
2022/12/19 02:36:00;;;;;;;26.75;13.38;;;;;;;1.65;60.87;96521.09;5012966;28;20489;-71
2022/12/19 02:38:49;;;;;;;24.52;13.98;;;;;;;1.70;61.19;96539.78;5033811;28;20029;-71
2022/12/19 02:41:17;;;;;;;25.92;13.85;;;;;;;1.69;61.29;96540.66;5049902;28;20070;-71
2022/12/19 02:43:45;;;;;;;25.75;13.32;;;;;;;1.69;61.63;96548.34;5049850;28;20055;-72
2022/12/19 02:46:10;;;;;;;23.77;12.40;;;;;;;1.71;61.14;96550.88;5032982;28;20544;-71
2022/12/19 02:48:36;;;;;;;24.73;12.90;;;;;;;1.66;62.02;96547.56;5032107;28;20028;-71
2022/12/19 02:51:01;;;;;;;25.08;13.63;;;;;;;1.63;62.07;96535.66;5049656;28;20422;-71
2022/12/19 02:53:27;;;;;;;28.17;17.23;;;;;;;1.56;61.77;96540.06;5049618;28;20032;-71
2022/12/19 02:56:15;;;;;;;28.90;16.02;;;;;;;1.60;61.92;96548.53;5033185;28;20037;-72
2022/12/19 02:59:03;;;;;;;26.08;16.23;;;;;;;1.52;62.36;96548.69;5034093;28;20049;-71
2022/12/19 03:01:38;;;;;;;23.73;12.73;;;;;;;1.46;61.91;96540.28;5052649;28;20051;-71
2022/12/19 03:04:27;;;;;;;31.58;16.25;;;;;;;1.41;62.79;96539.53;5048193;28;20043;-72
2022/12/19 03:07:07;;;;;;;25.08;13.05;;;;;;;1.54;62.94;96538.41;5049200;28;20060;-71
2022/12/19 03:09:57;;;;;;;23.83;12.68;;;;;;;1.65;62.06;96531.34;5049388;28;20029;-71
2022/12/19 03:12:26;;;;;;;23.13;13.38;;;;;;;1.56;61.49;96528.97;5036854;28;20025;-71
2022/12/19 03:14:51;;;;;;;23.48;13.20;;;;;;;1.45;62.40;96513.84;5013224;28;20123;-72
2022/12/19 03:17:17;;;;;;;23.42;12.85;;;;;;;1.48;62.51;96528.28;5028290;28;20418;-71
2022/12/19 03:19:42;;;;;;;24.33;12.90;;;;;;;1.45;62.79;96523.19;5029410;28;20119;-71
2022/12/19 03:22:08;;;;;;;25.67;12.98;;;;;;;1.35;62.88;96530.25;5046133;28;20060;-71
2022/12/19 03:24:33;;;;;;;25.20;14.13;;;;;;;1.27;62.49;96527.81;5046402;28;20021;-71
2022/12/19 03:27:10;;;;;;;24.92;12.80;;;;;;;1.15;62.98;96515.25;5027714;28;20116;-71
2022/12/19 03:29:46;;;;;;;25.77;13.38;;;;;;;1.26;62.54;96523.59;5046102;28;20025;-71
2022/12/19 03:32:12;;;;;;;23.35;12.25;;;;;;;1.40;62.53;96532.72;5029261;28;20063;-72
2022/12/19 03:34:41;;;;;;;23.02;12.55;;;;;;;1.39;62.42;96536.13;5027756;28;20091;-71
2022/12/19 03:37:08;;;;;;;24.48;13.10;;;;;;;1.48;62.25;96533.41;5024196;28;20117;-71
2022/12/19 03:39:33;;;;;;;24.15;13.32;;;;;;;1.55;62.01;96540.94;5029906;28;20028;-71
2022/12/19 03:44:43;;;;;;;24.13;12.90;;;;;;;1.62;61.87;96545.94;5035446;28;20036;-71
2022/12/19 03:47:22;;;;;;;30.58;13.90;;;;;;;1.65;61.69;96554.41;5049245;28;20029;-72
2022/12/19 03:49:48;;;;;;;23.98;13.07;;;;;;;1.40;61.74;96510.50;5050587;28;20518;-72
2022/12/19 03:52:28;;;;;;;25.33;13.43;;;;;;;1.63;62.21;96545.91;5032446;28;20048;-71
2022/12/19 03:55:14;;;;;;;25.87;13.17;;;;;;;1.66;61.56;96543.28;5050624;28;20040;-71
2022/12/19 03:57:48;;;;;;;22.65;11.35;;;;;;;1.40;62.03;96536.13;5034633;28;20048;-72
2022/12/19 04:00:14;;;;;;;23.05;12.25;;;;;;;1.62;61.64;96549.34;5033573;28;20063;-72
2022/12/19 04:02:44;;;;;;;25.20;13.35;;;;;;;1.46;61.25;96535.16;5032373;28;20029;-72
2022/12/19 04:05:11;;;;;;;24.77;12.73;;;;;;;1.51;61.27;96541.03;5032696;28;20036;-71
2022/12/19 04:07:37;;;;;;;22.60;12.65;;;;;;;1.50;61.12;96536.78;5032404;28;20032;-71
2022/12/19 04:10:07;;;;;;;29.52;15.48;;;;;;;1.56;61.50;96569.94;5028928;28;20487;-71
2022/12/19 04:12:35;;;;;;;28.52;15.63;;;;;;;1.52;62.35;96571.72;5012992;28;20413;-71
2022/12/19 04:15:01;;;;;;;28.35;14.68;;;;;;;1.48;62.51;96576.97;5012779;28;20041;-71
2022/12/19 04:17:45;;;;;;;23.73;13.65;;;;;;;1.40;62.76;96571.97;5030560;28;20029;-71
2022/12/19 04:20:15;;;;;;;27.83;15.20;;;;;;;1.41;61.68;96577.94;5016783;28;20037;-72
2022/12/19 04:23:21;;;;;;;28.25;16.58;;;;;;;1.47;62.01;96591.47;5016177;28;20416;-71
2022/12/19 04:25:48;;;;;;;27.25;15.75;;;;;;;1.54;61.43;96595.59;5032605;28;20030;-71
2022/12/19 04:28:44;;;;;;;25.10;14.00;;;;;;;1.43;62.43;96592.41;5032267;28;20030;-72
2022/12/19 04:31:13;;;;;;;22.75;12.50;;;;;;;1.30;62.29;96602.00;5024801;28;20500;-71
2022/12/19 04:33:38;;;;;;;23.20;12.80;;;;;;;1.36;62.12;96595.94;5032329;28;20036;-71
2022/12/19 04:36:04;;;;;;;25.23;12.90;;;;;;;1.45;61.67;96594.91;5032432;28;20037;-72
2022/12/19 04:38:30;;;;;;;21.50;12.63;;;;;;;1.37;61.75;96581.44;5015705;28;20041;-71
2022/12/19 04:40:56;;;;;;;24.20;12.45;;;;;;;1.42;62.07;96590.72;5015845;28;20407;-72
2022/12/19 04:43:21;;;;;;;22.10;12.95;;;;;;;1.46;62.11;96589.78;5032084;28;20040;-72
2022/12/19 04:45:47;;;;;;;22.88;12.52;;;;;;;1.47;61.58;96570.97;5033592;28;20393;-72
2022/12/19 04:48:12;;;;;;;25.92;13.23;;;;;;;1.41;61.15;96572.81;5015416;28;20037;-72
2022/12/19 04:50:37;;;;;;;26.15;16.95;;;;;;;1.49;61.39;96589.72;5033182;28;20049;-71
2022/12/19 04:53:03;;;;;;;27.20;14.07;;;;;;;1.45;61.24;96587.22;5033050;28;20033;-71
2022/12/19 04:55:28;;;;;;;24.48;13.80;;;;;;;1.31;61.73;96588.34;5031978;28;20037;-72
2022/12/19 04:57:54;;;;;;;31.17;15.57;;;;;;;1.26;61.77;96579.91;5031777;28;20061;-72
2022/12/19 05:00:19;;;;;;;27.38;15.98;;;;;;;1.44;61.53;96588.13;5015487;28;20041;-71
2022/12/19 05:02:45;;;;;;;27.70;15.45;;;;;;;1.28;61.80;96590.97;5031690;28;20424;-71
2022/12/19 05:05:10;;;;;;;26.85;14.18;;;;;;;1.33;61.99;96606.25;5033057;28;20472;-71
2022/12/19 05:07:35;;;;;;;28.33;17.40;;;;;;;1.37;61.79;96607.06;5032708;28;20408;-72
2022/12/19 05:10:01;;;;;;;29.25;17.23;;;;;;;1.31;61.01;96606.28;5031559;28;20052;-71
2022/12/19 05:12:29;;;;;;;24.83;13.23;;;;;;;1.31;61.42;96608.00;5031039;28;20033;-71
2022/12/19 05:14:55;;;;;;;24.92;13.45;;;;;;;1.34;62.06;96607.94;5015029;28;20034;-71
2022/12/19 05:17:20;;;;;;;24.33;13.48;;;;;;;1.40;61.61;96612.13;5032623;28;20029;-72
2022/12/19 05:19:46;;;;;;;26.00;13.48;;;;;;;1.41;61.54;96613.78;5032684;28;20049;-71
2022/12/19 05:22:11;;;;;;;25.70;13.80;;;;;;;1.34;62.12;96608.78;5031362;28;20037;-71
2022/12/19 05:24:37;;;;;;;24.50;13.18;;;;;;;1.19;62.22;96608.22;5031369;28;20029;-72
2022/12/19 05:27:02;;;;;;;24.08;12.95;;;;;;;1.10;63.58;96604.09;5032726;28;20472;-71
2022/12/19 05:29:28;;;;;;;25.77;13.82;;;;;;;1.10;63.83;96609.22;5031789;28;20117;-72
2022/12/19 05:31:53;;;;;;;29.15;15.15;;;;;;;1.01;63.37;96611.94;5032263;28;20458;-72
2022/12/19 05:34:18;;;;;;;29.02;14.88;;;;;;;0.96;63.76;96616.28;5031230;28;20018;-72
2022/12/19 05:36:45;;;;;;;28.55;14.27;;;;;;;0.87;63.87;96618.13;5032843;28;20044;-71
2022/12/19 05:39:10;;;;;;;26.75;13.52;;;;;;;0.93;63.97;96621.47;5019122;28;20029;-73
2022/12/19 05:41:36;;;;;;;27.40;14.23;;;;;;;0.87;63.97;96617.28;5005795;28;20506;-73
2022/12/19 05:44:01;;;;;;;26.98;14.18;;;;;;;0.89;64.48;96613.84;5008117;28;20028;-71
2022/12/19 05:46:27;;;;;;;25.33;13.10;;;;;;;0.91;64.64;96616.34;5050933;28;20052;-70
2022/12/19 05:48:52;;;;;;;24.60;12.80;;;;;;;0.81;64.08;96618.22;5036488;28;20044;-70
2022/12/19 05:51:18;;;;;;;24.63;13.40;;;;;;;0.84;64.63;96617.34;5042016;28;20045;-70
2022/12/19 05:53:43;;;;;;;22.38;12.93;;;;;;;0.81;64.80;96615.66;5032567;28;20041;-70
2022/12/19 05:56:16;;;;;;;24.65;13.20;;;;;;;0.70;64.88;96609.88;5014489;28;20029;-70
2022/12/19 05:58:41;;;;;;;21.73;12.25;;;;;;;0.80;65.11;96624.19;5014643;28;20187;-71
2022/12/19 06:01:09;;;;;;;26.80;13.95;;;;;;;0.75;64.81;96623.41;5019728;28;20495;-70
2022/12/19 06:03:34;;;;;;;22.75;12.48;;;;;;;0.59;64.68;96593.84;5047245;28;20040;-70
2022/12/19 06:06:04;;;;;;;24.38;13.48;;;;;;;0.74;64.41;96626.84;5043161;28;20040;-70
2022/12/19 06:08:30;;;;;;;26.73;14.27;;;;;;;0.84;64.27;96623.28;5011509;28;20043;-70
2022/12/19 06:10:58;;;;;;;26.15;16.38;;;;;;;0.95;63.14;96614.56;5028675;28;20411;-70
2022/12/19 06:13:23;;;;;;;29.33;17.52;;;;;;;0.78;63.22;96597.81;5042678;28;20029;-70
2022/12/19 06:15:48;;;;;;;31.15;20.40;;;;;;;1.03;62.66;96633.22;5044395;28;20025;-70
2022/12/19 06:18:14;;;;;;;57.67;36.08;;;;;;;1.08;63.12;96631.44;5031137;28;20029;-71
2022/12/19 06:20:39;;;;;;;57.40;32.67;;;;;;;1.04;63.38;96635.75;5038115;28;20037;-70
2022/12/19 06:23:05;;;;;;;31.50;17.63;;;;;;;1.00;63.45;96638.38;5049261;28;20036;-70
2022/12/19 06:25:30;;;;;;;29.80;16.63;;;;;;;1.00;63.65;96646.91;5040205;28;20098;-70
2022/12/19 06:27:56;;;;;;;26.80;15.00;;;;;;;0.82;63.99;96634.41;5042401;28;20026;-71
2022/12/19 06:30:21;;;;;;;34.28;17.73;;;;;;;0.86;63.52;96646.28;5042879;28;20041;-70
2022/12/19 06:32:47;;;;;;;32.25;16.40;;;;;;;0.86;63.53;96642.03;5044372;28;20032;-70
2022/12/19 06:35:12;;;;;;;36.80;16.88;;;;;;;1.09;62.24;96645.94;5033564;28;20389;-70
2022/12/19 06:37:37;;;;;;;37.13;20.35;;;;;;;0.99;63.45;96639.25;5031627;28;20036;-70
2022/12/19 06:40:03;;;;;;;29.58;16.50;;;;;;;0.97;63.66;96651.22;5032946;28;20498;-70
2022/12/19 06:42:29;;;;;;;29.60;15.80;;;;;;;0.75;64.02;96645.59;5050850;28;20408;-71
2022/12/19 06:44:55;;;;;;;32.80;16.05;;;;;;;0.59;64.03;96625.38;5042372;28;20079;-71
2022/12/19 06:47:20;;;;;;;28.30;14.93;;;;;;;0.96;64.34;96657.22;5031540;28;20151;-71
2022/12/19 06:49:47;;;;;;;28.52;15.30;;;;;;;1.07;63.46;96655.34;5034940;28;20051;-71
2022/12/19 06:52:13;;;;;;;34.35;18.15;;;;;;;0.88;63.55;96670.97;5028589;28;20035;-70
2022/12/19 06:54:38;;;;;;;36.38;18.08;;;;;;;0.68;64.61;96656.81;5009551;28;20033;-70
2022/12/19 06:57:04;;;;;;;34.13;17.73;;;;;;;0.71;64.75;96646.53;5043640;28;20053;-69
2022/12/19 06:59:29;;;;;;;31.85;16.95;;;;;;;0.97;63.90;96671.72;5042005;28;20442;-68
2022/12/19 07:02:07;;;;;;;30.60;15.48;;;;;;;0.99;64.22;96673.38;5036102;28;20025;-70
2022/12/19 07:04:37;;;;;;;32.05;16.13;;;;;;;0.95;63.72;96676.88;5037272;28;20032;-70
2022/12/19 07:07:03;;;;;;;30.48;15.15;;;;;;;0.99;64.05;96682.78;5041170;28;20060;-70
2022/12/19 07:09:29;;;;;;;30.52;15.73;;;;;;;0.96;64.19;96676.00;5035402;28;20130;-70
2022/12/19 07:11:54;;;;;;;28.67;16.42;;;;;;;1.00;64.48;96669.09;5034640;28;20495;-70
2022/12/19 07:14:20;;;;;;;28.05;15.68;;;;;;;1.14;64.41;96697.03;5030844;28;20550;-70
2022/12/19 07:16:45;;;;;;;34.42;17.70;;;;;;;1.31;64.04;96690.78;5036640;28;20431;-70
2022/12/19 07:19:11;;;;;;;32.92;17.38;;;;;;;1.14;64.64;96672.28;5030771;28;20053;-71
2022/12/19 07:21:36;;;;;;;31.95;16.30;;;;;;;1.19;65.02;96685.00;5038702;28;20029;-70
2022/12/19 07:24:02;;;;;;;29.63;16.77;;;;;;;1.17;64.99;96687.63;5010755;28;20056;-70
2022/12/19 07:26:28;;;;;;;31.60;16.70;;;;;;;1.18;65.50;96693.56;5045427;28;20029;-70
2022/12/19 07:28:53;;;;;;;32.78;17.65;;;;;;;1.11;65.14;96692.81;5048073;28;20516;-70
2022/12/19 07:31:18;;;;;;;29.58;16.55;;;;;;;1.18;65.86;96688.47;5048113;28;20041;-70
2022/12/19 07:33:44;;;;;;;34.22;18.08;;;;;;;0.85;66.34;96688.94;5030129;28;20044;-70
2022/12/19 07:36:09;;;;;;;35.50;18.25;;;;;;;0.95;66.19;96697.34;5047043;28;20036;-70
2022/12/19 07:38:35;;;;;;;31.48;17.30;;;;;;;0.89;67.15;96698.28;5047584;28;20036;-70
2022/12/19 07:41:01;;;;;;;34.28;18.85;;;;;;;0.89;66.73;96676.94;5046420;28;20025;-70
2022/12/19 07:43:26;;;;;;;33.67;17.88;;;;;;;0.98;66.75;96706.69;5029728;28;20037;-70
2022/12/19 07:45:55;;;;;;;40.03;20.40;;;;;;;0.92;66.97;96701.63;5046582;28;20040;-70
2022/12/19 07:48:21;;;;;;;42.28;19.77;;;;;;;0.86;67.09;96688.09;5047511;28;20025;-70
2022/12/19 07:50:47;;;;;;;38.05;19.15;;;;;;;1.02;66.48;96706.59;5030757;28;20120;-70
2022/12/19 07:53:14;;;;;;;35.97;18.08;;;;;;;1.06;66.71;96715.94;5049949;28;20024;-70
2022/12/19 07:55:39;;;;;;;50.63;24.50;;;;;;;1.17;66.21;96723.47;5034544;28;20025;-70
2022/12/19 07:58:05;;;;;;;45.80;24.60;;;;;;;1.12;66.45;96727.81;5052435;28;20144;-70
2022/12/19 08:00:30;;;;;;;52.55;25.15;;;;;;;1.17;65.82;96732.84;5035128;28;20090;-70
2022/12/19 08:02:58;;;;;;;47.38;24.50;;;;;;;1.21;66.12;96739.63;5054091;28;20041;-70
2022/12/19 08:05:23;;;;;;;46.10;27.42;;;;;;;1.28;65.59;96743.75;5053151;28;20032;-70
2022/12/19 08:07:51;;;;;;;47.10;24.70;;;;;;;1.31;65.33;96741.16;5053317;28;20029;-71
2022/12/19 08:10:18;;;;;;;45.20;24.75;;;;;;;1.36;65.99;96743.63;5054017;28;20108;-70
2022/12/19 08:12:43;;;;;;;49.72;24.83;;;;;;;1.11;66.03;96734.63;5054058;28;20132;-70
2022/12/19 08:15:09;;;;;;;47.97;25.23;;;;;;;1.17;66.06;96741.38;5054443;28;20022;-70
2022/12/19 08:17:35;;;;;;;47.42;23.88;;;;;;;1.18;66.17;96745.63;5036105;28;20495;-70
2022/12/19 08:20:00;;;;;;;39.00;20.73;;;;;;;1.24;66.12;96752.38;5052790;28;20033;-70
2022/12/19 08:22:27;;;;;;;43.15;23.75;;;;;;;1.34;65.67;96747.06;5054022;28;20029;-70
2022/12/19 08:24:53;;;;;;;42.92;22.77;;;;;;;1.33;65.04;96750.50;5052556;28;20029;-70
2022/12/19 08:27:18;;;;;;;48.08;26.33;;;;;;;1.37;65.66;96750.47;5052315;28;20032;-70
2022/12/19 08:29:43;;;;;;;36.70;20.05;;;;;;;1.28;65.62;96748.88;5035622;28;20045;-72
2022/12/19 08:32:09;;;;;;;35.35;19.52;;;;;;;0.91;66.47;96710.19;5052256;28;20028;-71
2022/12/19 08:34:34;;;;;;;44.15;23.08;;;;;;;1.30;65.98;96763.34;5019089;28;20502;-70
2022/12/19 08:37:00;;;;;;;53.88;27.30;;;;;;;1.24;66.16;96750.66;5019024;28;20021;-71
2022/12/19 08:39:25;;;;;;;51.13;27.27;;;;;;;1.27;66.26;96747.19;5035425;28;20032;-71
2022/12/19 08:41:51;;;;;;;56.90;28.65;;;;;;;1.41;66.23;96757.22;5053297;28;20071;-70
2022/12/19 08:44:16;;;;;;;47.83;26.60;;;;;;;1.60;65.80;96752.66;5052095;28;20403;-70
2022/12/19 08:46:42;;;;;;;41.85;25.77;;;;;;;1.59;65.69;96751.81;5052219;28;20033;-70
2022/12/19 08:49:07;;;;;;;48.88;26.33;;;;;;;1.60;65.49;96750.94;5051855;28;20501;-70
2022/12/19 08:51:33;;;;;;;48.63;27.65;;;;;;;1.55;65.89;96745.88;5053540;28;20449;-70
2022/12/19 08:53:58;;;;;;;58.35;34.28;;;;;;;1.62;66.02;96738.94;5051975;28;20357;-70
2022/12/19 08:56:24;;;;;;;44.83;24.90;;;;;;;1.67;66.26;96741.41;5035329;28;20033;-70
2022/12/19 08:58:50;;;;;;;36.63;17.67;;;;;;;1.45;67.12;96726.41;5035204;28;20052;-70
2022/12/19 09:01:19;;;;;;;35.08;17.75;;;;;;;1.35;67.21;96732.56;5035172;28;20025;-70
2022/12/19 09:03:45;;;;;;;30.00;13.65;;;;;;;1.11;68.35;96724.41;5034702;28;20418;-70
2022/12/19 09:06:11;;;;;;;42.22;19.48;;;;;;;1.08;69.42;96726.97;5034990;28;20029;-70
2022/12/19 09:08:37;;;;;;;33.53;15.85;;;;;;;1.13;68.47;96732.03;5035063;28;20065;-71
2022/12/19 09:11:05;;;;;;;37.17;17.27;;;;;;;1.34;68.94;96725.75;5051704;28;20036;-70
2022/12/19 09:13:31;;;;;;;35.40;17.58;;;;;;;1.41;68.38;96726.47;5018478;28;20041;-70
2022/12/19 09:16:00;;;;;;;32.95;17.48;;;;;;;1.50;68.50;96716.91;5051639;28;20074;-71
2022/12/19 09:18:26;;;;;;;39.38;19.17;;;;;;;1.58;67.65;96709.09;5051440;28;20037;-70
2022/12/19 09:20:54;;;;;;;42.13;20.73;;;;;;;1.76;67.49;96708.78;5034730;28;20112;-71
2022/12/19 09:23:21;;;;;;;38.72;21.55;;;;;;;1.91;67.09;96706.81;5034790;28;20033;-71
2022/12/19 09:25:46;;;;;;;40.03;21.58;;;;;;;1.97;66.76;96704.13;5051512;28;20516;-70
2022/12/19 09:28:12;;;;;;;37.13;19.75;;;;;;;1.89;66.40;96706.00;5051164;28;20086;-71
2022/12/19 09:30:38;;;;;;;34.28;19.05;;;;;;;1.74;67.14;96695.16;5052868;28;20515;-71
2022/12/19 09:33:03;;;;;;;35.92;18.33;;;;;;;1.71;67.30;96695.22;5052297;28;20036;-70
2022/12/19 09:35:29;;;;;;;34.03;18.02;;;;;;;1.82;66.82;96674.50;5051103;28;20043;-71
2022/12/19 09:37:54;;;;;;;35.97;17.63;;;;;;;2.04;66.56;96677.50;5051380;28;20036;-70
2022/12/19 09:40:20;;;;;;;33.85;16.45;;;;;;;2.20;66.15;96673.78;5034592;28;20438;-70
2022/12/19 09:42:55;;;;;;;32.75;17.20;;;;;;;2.19;65.90;96666.94;5050965;28;20041;-70
2022/12/19 09:45:36;;;;;;;33.25;16.58;;;;;;;2.28;66.55;96670.19;5051049;28;20551;-70
2022/12/19 09:48:01;;;;;;;32.92;17.83;;;;;;;2.26;67.14;96669.38;5034809;28;20037;-70
2022/12/19 09:50:51;;;;;;;30.52;13.98;;;;;;;2.24;67.61;96664.28;5052293;28;20037;-70
2022/12/19 09:53:26;;;;;;;30.50;14.95;;;;;;;2.31;67.14;96652.16;5052019;28;20036;-70
2022/12/19 09:55:52;;;;;;;26.90;13.80;;;;;;;2.34;67.17;96655.53;5034602;28;20035;-70
2022/12/19 09:58:38;;;;;;;28.42;15.02;;;;;;;2.42;67.15;96653.66;5034080;28;20048;-71
2022/12/19 10:01:06;;;;;;;28.92;14.52;;;;;;;2.31;67.00;96629.91;5050810;28;20131;-70
2022/12/19 10:03:38;;;;;;;35.33;16.42;;;;;;;2.16;67.26;96646.50;5050552;28;20041;-71
2022/12/19 10:06:17;;;;;;;35.78;17.90;;;;;;;2.10;66.10;96649.19;5034781;28;20037;-71
2022/12/19 10:08:43;;;;;;;29.88;15.82;;;;;;;1.85;66.92;96640.31;5033731;28;20506;-71
2022/12/19 10:11:11;;;;;;;35.33;16.08;;;;;;;1.84;67.38;96643.72;5034008;28;20116;-71
2022/12/19 10:14:04;;;;;;;42.17;20.77;;;;;;;1.95;66.94;96644.34;5052011;28;20843;-70
2022/12/19 10:17:03;;;;;;;37.35;18.73;;;;;;;2.20;66.71;96637.88;5051856;28;20029;-70
2022/12/19 10:19:28;;;;;;;30.27;16.33;;;;;;;2.27;66.15;96630.03;5050366;28;20024;-71
2022/12/19 10:22:25;;;;;;;42.88;23.23;;;;;;;2.36;65.63;96617.84;5050115;28;20021;-70
2022/12/19 10:25:03;;;;;;;37.55;22.67;;;;;;;2.50;65.85;96632.94;5046037;28;20044;-71
2022/12/19 10:27:28;;;;;;;54.60;27.90;;;;;;;2.53;66.01;96619.19;5051350;28;20135;-70
2022/12/19 10:30:19;;;;;;;32.42;17.42;;;;;;;2.64;65.55;96615.50;5051256;28;20403;-70
2022/12/19 10:33:10;;;;;;;31.15;15.73;;;;;;;2.40;66.17;96605.81;5034829;28;20510;-70
2022/12/19 10:35:41;;;;;;;30.13;15.10;;;;;;;2.48;66.16;96606.50;5051501;28;20513;-70
2022/12/19 10:38:23;;;;;;;32.00;16.63;;;;;;;2.53;66.30;96593.53;5034029;28;20040;-71
2022/12/19 10:41:27;;;;;;;32.38;14.88;;;;;;;2.31;66.67;96599.16;5034195;28;20037;-70
2022/12/19 10:43:56;;;;;;;25.85;14.05;;;;;;;2.58;65.79;96597.69;5015661;28;20107;-71
2022/12/19 10:46:44;;;;;;;29.85;15.15;;;;;;;2.65;65.77;96599.25;5048616;28;20424;-70
2022/12/19 10:49:15;;;;;;;28.10;15.68;;;;;;;2.53;66.12;96594.38;5050278;28;20063;-70
2022/12/19 10:52:02;;;;;;;31.35;16.77;;;;;;;2.69;66.28;96585.44;5049925;28;20032;-70
2022/12/19 10:54:36;;;;;;;56.20;29.20;;;;;;;2.61;66.87;96587.34;5049508;28;20118;-71
2022/12/19 10:57:20;;;;;;;31.92;16.92;;;;;;;2.46;67.17;96587.72;5049405;28;20057;-70
2022/12/19 11:00:05;;;;;;;27.83;14.55;;;;;;;2.17;68.13;96567.84;5050808;28;20503;-71
2022/12/19 11:02:34;;;;;;;26.83;14.48;;;;;;;2.20;67.70;96584.03;5050835;28;20021;-71
2022/12/19 11:05:00;;;;;;;25.80;15.13;;;;;;;2.18;68.33;96585.75;5049682;28;20040;-70
2022/12/19 11:07:26;;;;;;;27.73;14.95;;;;;;;1.97;68.38;96588.78;5032954;28;20056;-70
2022/12/19 11:09:51;;;;;;;22.80;13.45;;;;;;;1.84;68.84;96566.84;5032889;28;20044;-70
2022/12/19 11:12:18;;;;;;;28.13;13.38;;;;;;;1.97;69.07;96584.47;5032839;28;20044;-70
2022/12/19 11:14:50;;;;;;;25.98;14.07;;;;;;;1.84;69.05;96592.47;5049520;28;20035;-70
2022/12/19 11:17:31;;;;;;;23.83;13.45;;;;;;;1.55;69.04;96542.66;5049510;28;20025;-70
2022/12/19 11:19:57;;;;;;;26.02;13.45;;;;;;;1.72;69.49;96553.41;5050641;28;20530;-70
2022/12/19 11:22:29;;;;;;;23.00;12.00;;;;;;;1.95;68.35;96560.63;5049407;28;20067;-70
2022/12/19 11:24:55;;;;;;;22.30;12.23;;;;;;;1.85;68.25;96565.97;5049430;28;20037;-70
2022/12/19 11:27:38;;;;;;;22.88;11.77;;;;;;;1.77;69.30;96582.34;5034428;28;20033;-71
2022/12/19 11:30:23;;;;;;;24.58;13.18;;;;;;;1.96;69.36;96575.13;5054781;28;20554;-71
2022/12/19 11:33:06;;;;;;;21.95;12.18;;;;;;;2.01;69.05;96580.16;5053484;28;20090;-70
2022/12/19 11:35:32;;;;;;;23.00;12.35;;;;;;;2.05;68.86;96573.25;5037129;28;20071;-71
2022/12/19 11:37:59;;;;;;;25.52;14.00;;;;;;;2.04;69.46;96574.97;5036710;28;20025;-70